Asheville Regional Airport Asheville US
ICAO: KAVL
IATA: AVL
Category: Large
Scheduled Services: Yes

Elevation: 2165 ft
TransAlt. 18000 ft.

Airport Communications:
APP/DEP:124.65
ATIS:120.2
CTAF:121.1
GND:121.9
TWR:121.1
UNICOM:122.95

KAVL Zoom In..

If you have problems with the map follow the link
https://www.worldairports.se/pages/airport.php?
ICAO=KAVL

Runways:

(A) RW 16 length 8001 ft width 150 ft
ILS 110.90 / hdg 164

(B) RW 34 length 8001 ft width 150 ft
ILS 110.50 / hdg 344

Location; KAVL
Day. 29 / Time. 11.54 Zulu
* Altimeter: 30.03
* Temperature: -01° c. -30.2°f.
* Wind from: 000° Speed 00 kn.
Dewpoint: -03° c.
Visibility: 10 Statute Miles.
Clouds: Broken 1000 ft.

KAVL 291154Z 00000KT 10SM BKN100 M01/M03 A3003 RMK AO2 SLP172 T10061028 10033 21017 50005


Wind - Calm.

 
 
jpsmedia worldairports.se 2020   terms of use